St-Michel-de-Napierville Airport

CMN3 · Quebec, Canada

METAR history CMN3 · St-Michel-de-Napierville Airport

Below you see METARs of the last few days. Select a year to browse through older METARs, from the year 2007 onwards.

April 22, 2024

Time Code Weather Temp. Visibility Ceiling Wind METAR/SPECI
08:00
V
0 °C 30 mi - 320° 320° 11 - 17 kt METAR CYUL 221200Z 32011G17KT 30SM FEW040 M00/M10 A3008 RMK CF1 CF TR SLP189
07:00
V
-1 °C 30 mi - 320° 320° 5 kt METAR CYUL 221100Z 32005KT 280V360 30SM FEW040 FEW240 M01/M09 A3006 RMK CF1CI1 CF TR CI TR SLP183
06:00
V
-2 °C 30 mi - 290° 290° 5 kt METAR CYUL 221000Z 29005KT 30SM FEW010 FEW240 M02/M08 A3004 RMK SF1CI1 SF TR CI TR SLP176
05:00
V
-2 °C 15 mi - 310° 310° 8 kt METAR CYUL 220900Z 31008KT 15SM FEW240 M02/M08 A3002 RMK CI1 CI TR SLP170
04:00
V
-1 °C 15 mi - 310° 310° 8 kt METAR CYUL 220800Z 31008KT 15SM FEW010 M01/M09 A3000 RMK SF1 SF TR SLP164
03:00
V
0 °C 15 mi - 310° 310° 8 - 16 kt METAR CYUL 220700Z 31008G16KT 15SM FEW010 FEW090 M00/M09 A2998 RMK SF1AC1 SF TR AC TR SLP156
02:00
V
0 °C 15 mi - 310° 310° 8 - 16 kt METAR CYUL 220600Z 31008G16KT 15SM FEW010 00/M07 A2995 RMK SF1 SF TR SLP147
01:00
V
1 °C 15 mi - 310° 310° 7 - 17 kt METAR CYUL 220500Z 31007G17KT 15SM FEW045 FEW090 01/M06 A2993 RMK CF1AC1 CF TR AC TR SLP139
00:00
V
3 °C 15 mi 8,000 ft 310° 310° 8 - 16 kt METAR CYUL 220400Z 31008G16KT 15SM BKN080 03/M02 A2988 RMK AC7 SLP121

April 21, 2024

Time Code Weather Temp. Visibility Ceiling Wind METAR/SPECI
23:00
V
3 °C 15 mi 4,500 ft 310° 310° 15 - 22 kt METAR CYUL 220300Z 31015G22KT 15SM BKN045 OVC065 03/M01 A2985 RMK SC7SC1 SLP111
22:41
V
3 °C 15 mi 4,500 ft 330° 330° 14 - 21 kt METAR CYUL 220241Z 33014G21KT 15SM BKN045 BKN090 03/M00 A2984 RMK SC5AC2 SLP108
22:36
V
3 °C 15 mi 4,000 ft 330° 330° 10 - 21 kt METAR CYUL 220236Z 33010G21KT 15SM BKN040 BKN090 03/M00 A2984 RMK SC5AC2 CVCTV CLD EMBD SLP109
22:18
M
3 °C 6 mi 2,800 ft 330° 330° 18 - 31 kt METAR CYUL 220218Z 33018G31KT 220V340 6SM SHRA BKN028 OVC050 03/M00 A2984 RMK SC6SC2 CVCTV CLD EMBD -SHSN PRESRR SLP106
22:22
V
3 °C 10 mi 6,000 ft 330° 330° 12 - 31 kt METAR CYUL 220222Z 33012G31KT 270V340 10SM -SHRA SCT028 BKN060 BKN120 03/00 A2984 RMK SC3SC2AC1 CVCTV CLD EMBD PRESRR SLP106
22:16
M
5 °C 15 mi 2,800 ft 330° 330° 23 - 31 kt METAR CYUL 220216Z 33023G31KT 220V330 15SM -SHRA BKN028 OVC065 05/M00 A2984 RMK SC6SC2 CVCTV CLD EMBD PRESRR SLP106
22:00
V
7 °C 15 mi 9,000 ft 250° 250° 19 - 24 kt METAR CYUL 220200Z 25019G24KT 15SM SCT050 BKN090 BKN150 07/M01 A2980 RMK SC4AC2AC1 SLP094
21:00
V
7 °C 15 mi 6,000 ft 250° 250° 18 - 24 kt METAR CYUL 220100Z 25018G24KT 15SM VCSH BKN060 07/M02 A2979 RMK SC6 SLP092
20:19
V
7 °C 15 mi - 250° 250° 15 - 20 kt METAR CYUL 220019Z 25015G20KT 15SM FEW035 FEW055 FEW250 07/M01 A2979 RMK CU1SC1CI1 CI TR SLP091
20:00
V
7 °C 30 mi 7,000 ft 250° 250° 15 kt METAR CYUL 220000Z 25015KT 30SM -SHRA SCT035 SCT055 BKN070 07/M01 A2979 RMK CU3SC1AC1 SLP091
19:00
V
8 °C 30 mi 25,000 ft 240° 240° 14 - 22 kt METAR CYUL 212300Z 24014G22KT 30SM FEW045 FEW065 FEW160 BKN250 08/M03 A2978 RMK CU1SC1AC2CI3 CU TR SC TR SLP088
18:00
V
8 °C 30 mi - 240° 240° 16 - 23 kt METAR CYUL 212200Z 24016G23KT 30SM SCT045 SCT065 08/M03 A2979 RMK CU3SC1 SLP092
17:00
V
8 °C 30 mi 7,200 ft 260° 260° 12 - 23 kt METAR CYUL 212100Z 26012G23KT 30SM VCSH FEW035 SCT055 OVC072 08/M04 A2980 RMK CU2SC1AC5 SLP094
16:44
V
8 °C 30 mi 7,500 ft 260° 260° 14 - 19 kt METAR CYUL 212044Z 26014G19KT 30SM VCSH FEW035 SCT055 BKN075 08/M04 A2980 RMK CU1SC3AC3 SLP094
16:18
V
7 °C 30 mi 5,500 ft 250° 250° 17 - 24 kt METAR CYUL 212018Z 25017G24KT 30SM -SHRA SCT042 OVC055 07/M04 A2981 RMK CU4SC4 SLP096
16:00
V
7 °C 30 mi 4,700 ft 260° 260° 15 - 21 kt METAR CYUL 212000Z 26015G21KT 30SM BKN047 OVC060 07/M03 A2981 RMK CU5SC3 SLP096
15:00
V
8 °C 30 mi 6,500 ft 280° 280° 15 - 22 kt METAR CYUL 211900Z 28015G22KT 30SM SCT045 OVC065 08/M03 A2982 RMK CU3SC5 SLP102
14:00
V
8 °C 30 mi 4,000 ft 250° 250° 13 - 23 kt METAR CYUL 211800Z 25013G23KT 30SM BKN040 BKN065 08/M02 A2984 RMK CU6SC1 SLP106
13:00
V
7 °C 30 mi 4,000 ft 260° 260° 14 kt METAR CYUL 211700Z 26014KT 30SM OVC040 07/M02 A2985 RMK CU8 SLP110
12:46
V
6 °C 30 mi 3,500 ft 280° 280° 9 kt METAR CYUL 211646Z 28009KT 240V300 30SM BKN035 OVC042 06/M02 A2985 RMK CU6SC2 SLP111
12:24
V
6 °C 30 mi 3,500 ft 280° 280° 7 kt METAR CYUL 211624Z 28007KT 30SM -SHRA BKN035 OVC050 06/M02 A2986 RMK CU6SC2 SLP115
12:00
V
6 °C 30 mi 6,700 ft 280° 280° 10 - 16 kt METAR CYUL 211600Z 28010G16KT 240V310 30SM SCT034 BKN067 06/M02 A2987 RMK CU3AC4 SLP118
11:00
M
6 °C 30 mi 3,000 ft 250° 250° 14 kt METAR CYUL 211500Z 25014KT 30SM BKN030 BKN080 06/M02 A2989 RMK CU5AC2 SLP126
10:32
V
5 °C 30 mi 7,500 ft 260° 260° 9 kt METAR CYUL 211432Z 26009KT 30SM FEW025 BKN075 05/M01 A2990 RMK CU1AC6 SLP128
10:00
V
4 °C 30 mi 6,000 ft 250° 250° 12 - 20 kt METAR CYUL 211400Z 25012G20KT 30SM -SHRA FEW025 BKN060 04/M01 A2991 RMK CU1SC6 SLP131
09:48
V
5 °C 30 mi 6,300 ft 250° 250° 11 - 18 kt METAR CYUL 211348Z 25011G18KT 30SM -SHRA FEW025 FEW038 BKN063 05/M01 A2991 RMK CU1SC1SC5 SLP132
09:38
V
5 °C 30 mi 6,500 ft 250° 250° 14 - 20 kt METAR CYUL 211338Z 25014G20KT 30SM FEW025 SCT045 OVC065 05/M01 A2991 RMK CF1SC3SC5 CF TR SLP132
09:07
V
4 °C 30 mi 7,500 ft 250° 250° 12 - 19 kt METAR CYUL 211307Z 25012G19KT 30SM -SHRA FEW025 SCT045 OVC075 04/M01 A2992 RMK CF1SC3AC5 CF TR CVCTV CLD EMBD SLP134
09:00
V
4 °C 30 mi 4,500 ft 240° 240° 13 kt METAR CYUL 211300Z 24013KT 30SM FEW025 BKN045 OVC055 04/M02 A2992 RMK CF1SC7SC1 CF TR SLP133
08:00
V
4 °C 15 mi 4,500 ft 250° 250° 9 - 16 kt METAR CYUL 211200Z 25009G16KT 15SM BKN045 OVC070 04/M02 A2992 RMK SC6AC2 SLP134
07:00
V
4 °C 30 mi 4,400 ft 260° 260° 13 kt METAR CYUL 211100Z 26013KT 30SM BKN044 OVC080 04/M03 A2991 RMK SC7AC1 SLP131
06:00
V
4 °C 30 mi 5,000 ft 260° 260° 13 - 18 kt METAR CYUL 211000Z 26013G18KT 30SM BKN050 BKN080 04/M03 A2990 RMK SC6AC1 SLP128
05:00
V
4 °C 15 mi 7,500 ft 250° 250° 12 kt METAR CYUL 210900Z 25012KT 15SM BKN075 04/M03 A2989 RMK AC7 SLP124
04:00
V
3 °C 15 mi 24,000 ft 250° 250° 12 kt METAR CYUL 210800Z 25012KT 15SM SCT120 BKN240 03/M02 A2987 RMK AC3CI2 SLP119
03:00
V
4 °C 15 mi - 250° 250° 9 kt METAR CYUL 210700Z 25009KT 15SM FEW120 04/M02 A2988 RMK AC1 SLP120
02:00
V
4 °C 15 mi - 260° 260° 12 kt METAR CYUL 210600Z 26012KT 15SM FEW090 04/M01 A2989 RMK AC1 AC TR SLP124
01:00
V
5 °C 15 mi - 250° 250° 11 kt METAR CYUL 210500Z 25011KT 15SM FEW042 FEW120 05/01 A2991 RMK SC1AC1 AC TR SLP130
00:00
V
5 °C 15 mi - 260° 260° 10 - 16 kt METAR CYUL 210400Z 26010G16KT 15SM FEW120 05/01 A2991 RMK AC1 AC TR SLP130

April 20, 2024

Time Code Weather Temp. Visibility Ceiling Wind METAR/SPECI
23:00
V
5 °C 15 mi - 260° 260° 13 - 20 kt METAR CYUL 210300Z 26013G20KT 15SM FEW090 05/00 A2990 RMK AC2 SLP128
22:00
V
6 °C 15 mi - 250° 250° 13 - 19 kt METAR CYUL 210200Z CCA 25013G19KT 15SM FEW150 06/00 A2990 RMK AC2 SLP127
21:00
V
6 °C 15 mi - 260° 260° 12 - 17 kt METAR CYUL 210100Z 26012G17KT 15SM FEW080 06/M00 A2988 RMK AC1 AC TR SLP122
20:00
V
7 °C 15 mi - 270° 270° 16 - 23 kt METAR CYUL 210000Z 27016G23KT 15SM FEW030 FEW080 07/M01 A2985 RMK CU1AC1 CU TR SLP112
19:00
V
8 °C 15 mi - 270° 270° 16 kt METAR CYUL 202300Z 27016KT 15SM VCSH FEW032 SCT074 SCT250 08/M00 A2983 RMK CU1AC2CI1 SLP105
18:00
V
8 °C 15 mi 25,000 ft 270° 270° 14 - 21 kt METAR CYUL 202200Z 27014G21KT 15SM FEW030 FEW075 BKN250 08/01 A2983 RMK CU1AC1CI5 CS ASOCTD SLP103
17:29
V
8 °C 15 mi 25,000 ft 260° 260° 15 - 20 kt METAR CYUL 202129Z 26015G20KT 15SM FEW028 SCT060 OVC250 08/01 A2982 RMK CU1SC2CS5 SLP101
17:00
V
8 °C 15 mi 4,000 ft 280° 280° 13 kt METAR CYUL 202100Z 28013KT 15SM -SHRA FEW030 OVC040 08/01 A2982 RMK CU1SC7 SLP101
16:00
V
9 °C 15 mi 3,500 ft 310° 310° 10 - 15 kt METAR CYUL 202000Z 31010G15KT 15SM BKN035 BKN080 OVC250 09/00 A2981 RMK CU5AC1CI2 SLP097
15:17
V
9 °C 15 mi 6,000 ft 300° 300° 10 - 17 kt METAR CYUL 201917Z 30010G17KT 15SM -SHRA FEW032 BKN060 OVC250 09/01 A2982 RMK CU2SC5CI1 SLP102
15:00
V
9 °C 15 mi 7,500 ft 310° 310° 12 - 17 kt METAR CYUL 201900Z 31012G17KT 290V360 15SM SCT033 BKN075 OVC250 09/01 A2982 RMK CU3AC3CI2 SLP102
14:00
V
10 °C 30 mi - 330° 330° 12 - 18 kt METAR CYUL 201800Z 33012G18KT 260V340 30SM FEW040 SCT120 SCT250 10/M00 A2983 RMK CU1AC2CI1 SLP105
13:00
V
9 °C 30 mi 7,500 ft 290° 290° 12 - 20 kt METAR CYUL 201700Z 29012G20KT 30SM FEW045 BKN075 BKN200 09/M02 A2984 RMK CU2AC3CI2 VIRGA SLP108
12:00
V
9 °C 30 mi 12,000 ft 290° 290° 13 - 21 kt METAR CYUL 201600Z 29013G21KT 30SM FEW050 BKN120 09/M02 A2985 RMK CU2AC4 SLP111
11:00
V
10 °C 30 mi 10,000 ft 250° 250° 18 - 23 kt METAR CYUL 201500Z 25018G23KT 30SM VCSH FEW050 SCT075 BKN100 10/M03 A2986 RMK CU2AC1AC3 SHWR W SLP116
10:00
V
9 °C 30 mi - 270° 270° 13 kt METAR CYUL 201400Z 27013KT 30SM FEW045 FEW090 09/M03 A2987 RMK CU1AC2 CU TR VIRGA SLP117
09:00
V
8 °C 30 mi - 270° 270° 12 kt METAR CYUL 201300Z 27012KT 30SM FEW040 FEW120 FEW250 08/M02 A2988 RMK SC1AC1CI1 SC TR AC TR CI TR SLP122
08:00
V
7 °C 30 mi - 260° 260° 14 kt METAR CYUL 201200Z 26014KT 30SM FEW035 FEW110 FEW250 07/M03 A2990 RMK CU1AC1CI1 CU TR AC TR CI TR SLP128=
07:00
V
7 °C 15 mi 8,500 ft 250° 250° 14 kt METAR CYUL 201100Z 25014KT 15SM FEW032 BKN085 07/M03 A2990 RMK CU1AC7 CU TR SLP128=
06:00
V
7 °C 15 mi 7,000 ft 260° 260° 15 kt METAR CYUL 201000Z 26015KT 15SM BKN070 07/M01 A2988 RMK AC7 SLP122=
05:00
V
8 °C 15 mi 7,000 ft 250° 250° 14 kt METAR CYUL 200900Z 25014KT 15SM BKN070 08/M00 A2986 RMK AC7 SLP116=
04:00
V
8 °C 15 mi 8,500 ft 240° 240° 11 kt METAR CYUL 200800Z 24011KT 15SM BKN085 08/01 A2986 RMK AC6 SLP116=
03:00
V
9 °C 15 mi 7,200 ft 240° 240° 8 kt METAR CYUL 200700Z 24008KT 15SM SCT060 BKN072 09/01 A2986 RMK SC4AC2 SLP115=
02:00
V
9 °C 15 mi 16,000 ft 250° 250° 9 kt METAR CYUL 200600Z CCA 25009KT 15SM FEW060 BKN160 09/02 A2987 RMK SC2AC4 SLP118=
Report a change